Airfield :
LOGIN :

Register | Disclaimer

   EN    FR    IT 

 










Legend :    VFR   Marginal VFR   IFR   Intensive IFR   Very Intensive IFR
Visi :
Ceiling :
>= 8 km
>= 3000ft
5 to 8 km
1000 to 3000 ft
1500m to 5 km
500 to 1000 ft
800 to 1500m
200 to 500 ft
< 800m
< 200 ft
Symbols :   Thunderstorms  Fog  Heavy snow  Heavy precipitations  Wind > 20 kt
SIGMETs :     Misc.  Thunderstorms  Icing  Turbulence  Mountain Waves  Volcanic Ashes






- Airport Elevation : 333 ft


LIPL - Ghedi Brescia (Mil)

CURRENT METAR :
  • 190855Z 26005KT 8000 NSC 26/18 Q1015 RMK FEW FEW200 VIS MIN 8000 WIND THR31 24005KT WIND THR13 26006KT BLU

EXPIRED METARs :
  • 190755Z 26005KT 6000 NSC 26/19 Q1016 RMK FEW FEW200 VIS MIN 6000 WIND THR31 24006KT WIND THR13 24004KT WHT
  • 190655Z 19003KT 6000 NSC 25/20 Q1016 RMK FEW FEW200 VIS MIN 6000 WIND THR31 21005KT WIND THR13 21002KT WHT

TAF TAF LIPL
Valid from the 19 at 09:00 until the 19 at 18:00 UTC


190800Z 1909/1918 30008KT CAVOK



MET'MAP, your aeronautical weather chart ! - Copyright ORBIFLY December 2007 - Disclaimer

ORBIFLY MET'MAP TEAM :

Programming & Development : Alexandra Zaïnal
Concept & original design : Baudouin d'Aumeries
Assistance for programming : Marc-Olivier Méhu
Technical & hardware support : Manuel Goepfert

Contact : metmap@orbifly.com




SOURCES & CREDITS :

   NOAA